Flugplatz Holzdorf Airport

Bericht für ETSH

vom 25.10. um 16:20 UTC

Wind 3 kt aus 170°

Sichtweite 10 km oder mehr

aufgebrochene Bewölkung in 20000 ft

aufgelockert bewölkt in 26000 ft

Temperatur 8.0°C

Taupunkt 6.0°C

Luftfeuchtigkeit 87%

Luftdruck 1019 hPa

ETSH 251620Z 17003KT 9999 BKN200 SCT260 08/06 Q1019 BLU+BLU+

Prognose für ETSH

vom 25.10. um 13:23 UTC

Zwischen 14:00 UTC und 23:00 UTC

Wind 8 kt aus 210°

Sichtweite 10 km oder mehr

keine signifikanten Wettererscheinungen

gering bewölkt in 20000 ft

aufgebrochene Bewölkung in 23000 ft

TAF ETSH 251323Z 2514/2523 21008KT 9999 NSW FEW200 BKN230
Impressum